createdAt,value
2022-08-14T00:01:11.549Z,3.17
2022-08-14T00:03:40.759Z,3.55
2022-08-14T00:06:13.977Z,3.40
2022-08-14T00:08:52.197Z,3.42
2022-08-14T00:11:19.797Z,4.00
2022-08-14T00:13:52.824Z,3.63
2022-08-14T00:16:41.120Z,3.10
2022-08-14T00:19:19.339Z,3.75
2022-08-14T00:21:52.177Z,3.42
2022-08-14T00:24:28.335Z,3.53
2022-08-14T00:27:01.848Z,3.47
2022-08-14T00:29:32.992Z,3.30
2022-08-14T00:32:52.885Z,3.33
2022-08-14T00:34:53.736Z,3.40
2022-08-14T00:37:20.788Z,2.95
2022-08-14T00:39:47.596Z,3.78
2022-08-14T00:42:21.154Z,3.83
2022-08-14T00:45:11.382Z,3.08
2022-08-14T00:47:43.219Z,4.10
2022-08-14T00:50:17.621Z,3.72
2022-08-14T00:52:47.441Z,4.30
2022-08-14T00:55:20.018Z,2.83
2022-08-14T00:58:08.079Z,3.13
2022-08-14T01:00:45.527Z,3.30
2022-08-14T01:03:19.292Z,3.15
2022-08-14T01:05:51.618Z,3.97
2022-08-14T01:08:57.511Z,3.28
2022-08-14T01:11:08.351Z,3.25
2022-08-14T01:13:42.992Z,3.20
2022-08-14T01:16:13.986Z,3.78
2022-08-14T01:19:02.470Z,3.60
2022-08-14T01:21:34.815Z,3.00
2022-08-14T01:24:24.734Z,3.15
2022-08-14T01:27:00.748Z,2.92
2022-08-14T01:29:58.860Z,3.13
2022-08-14T01:32:22.798Z,3.25
2022-08-14T01:35:17.569Z,3.20
2022-08-14T01:37:44.592Z,3.47
2022-08-14T01:40:15.505Z,3.53
2022-08-14T01:42:47.165Z,3.53
2022-08-14T01:45:17.956Z,4.32
2022-08-14T01:47:52.372Z,3.78
2022-08-14T01:50:30.774Z,3.72
2022-08-14T01:53:01.259Z,3.97
2022-08-14T01:55:32.359Z,3.92
2022-08-14T01:58:01.350Z,3.80
2022-08-14T02:00:48.170Z,3.43
2022-08-14T02:03:16.246Z,3.47
2022-08-14T02:05:43.564Z,3.08
2022-08-14T02:08:10.630Z,3.77
2022-08-14T02:10:46.827Z,3.80
2022-08-14T02:13:16.058Z,4.30
2022-08-14T02:15:43.852Z,3.20
2022-08-14T02:18:11.988Z,3.97
2022-08-14T02:20:42.075Z,3.37
2022-08-14T02:23:09.150Z,3.60
2022-08-14T02:25:36.422Z,3.40
2022-08-14T02:28:22.971Z,3.73
2022-08-14T02:30:52.289Z,3.83
2022-08-14T02:33:19.094Z,3.67
2022-08-14T02:35:53.081Z,4.03
2022-08-14T02:38:29.512Z,4.70
2022-08-14T02:40:58.926Z,4.17
2022-08-14T02:43:36.584Z,4.30
2022-08-14T02:46:04.309Z,3.80
2022-08-14T02:49:01.842Z,4.03
2022-08-14T02:51:23.351Z,4.13
2022-08-14T02:53:51.888Z,4.27
2022-08-14T02:56:30.210Z,4.20
2022-08-14T02:59:09.483Z,4.40
2022-08-14T03:01:43.460Z,4.20
2022-08-14T03:04:17.535Z,4.17
2022-08-14T03:06:56.927Z,3.57
2022-08-14T03:09:25.584Z,4.90
2022-08-14T03:12:09.228Z,4.17
2022-08-14T03:14:43.530Z,4.03
2022-08-14T03:17:14.001Z,4.07
2022-08-14T03:19:44.218Z,4.40
2022-08-14T03:22:17.681Z,3.93
2022-08-14T03:24:44.636Z,4.20
2022-08-14T03:27:14.182Z,4.13
2022-08-14T03:29:40.945Z,5.43
2022-08-14T03:32:08.307Z,4.47
2022-08-14T03:34:48.419Z,4.83
2022-08-14T03:37:38.432Z,4.40
2022-08-14T03:40:12.330Z,4.13
2022-08-14T03:42:45.327Z,4.57
2022-08-14T03:45:19.530Z,4.18
2022-08-14T03:48:01.702Z,4.07
2022-08-14T03:50:31.688Z,4.30
2022-08-14T03:53:03.432Z,3.87
2022-08-14T03:55:31.080Z,4.43
2022-08-14T03:58:00.536Z,4.00
2022-08-14T04:00:42.649Z,3.83
2022-08-14T04:03:23.536Z,3.63
2022-08-14T04:05:51.454Z,4.20
2022-08-14T04:08:30.037Z,4.30
2022-08-14T04:11:00.994Z,4.17
2022-08-14T04:13:31.761Z,5.03
2022-08-14T04:16:06.782Z,4.60
2022-08-14T04:18:45.904Z,4.10
2022-08-14T04:21:14.840Z,5.20
2022-08-14T04:23:43.828Z,4.17
2022-08-14T04:26:14.809Z,4.00
2022-08-14T04:29:08.113Z,3.93
2022-08-14T04:33:10.598Z,3.77
2022-08-14T04:34:28.297Z,4.87
2022-08-14T04:37:21.963Z,4.50
2022-08-14T04:40:08.825Z,3.90
2022-08-14T04:42:54.294Z,4.30
2022-08-14T04:45:23.754Z,4.07
2022-08-14T04:48:10.790Z,4.60
2022-08-14T04:50:54.315Z,4.47
2022-08-14T04:53:26.325Z,5.13
2022-08-14T04:56:01.214Z,4.83
2022-08-14T04:58:32.773Z,4.67
2022-08-14T05:01:02.678Z,4.18
2022-08-14T05:03:32.654Z,5.13
2022-08-14T05:06:02.231Z,5.05
2022-08-14T05:08:50.739Z,4.38
2022-08-14T05:11:19.935Z,4.97
2022-08-14T05:14:33.676Z,4.20
2022-08-14T05:16:33.382Z,4.35
2022-08-14T05:19:24.285Z,4.80
2022-08-14T05:21:56.892Z,4.35
2022-08-14T05:24:25.825Z,4.45
2022-08-14T05:26:52.640Z,4.28
2022-08-14T05:29:19.988Z,4.20
2022-08-14T05:31:47.363Z,4.70
2022-08-14T05:34:14.006Z,4.60
2022-08-14T05:36:42.866Z,5.13
2022-08-14T05:39:17.681Z,4.07
2022-08-14T05:41:53.414Z,5.43
2022-08-14T05:44:20.954Z,4.85
2022-08-14T05:46:47.595Z,4.50
2022-08-14T05:49:14.477Z,4.50
2022-08-14T05:51:41.330Z,4.43
2022-08-14T05:54:13.697Z,4.40
2022-08-14T05:56:55.124Z,4.30
2022-08-14T05:59:30.082Z,4.57
2022-08-14T06:02:05.864Z,3.97
2022-08-14T06:04:32.788Z,3.80
2022-08-14T06:06:59.570Z,4.13
2022-08-14T06:09:26.185Z,4.45
2022-08-14T06:11:53.260Z,4.45
2022-08-14T06:14:24.037Z,4.45
2022-08-14T06:16:52.944Z,4.10
2022-08-14T06:19:20.440Z,4.18
2022-08-14T06:21:54.392Z,4.25
2022-08-14T06:24:24.812Z,4.50
2022-08-14T06:26:54.241Z,4.63
2022-08-14T06:29:23.764Z,4.10
2022-08-14T06:31:54.599Z,3.83
2022-08-14T06:35:10.433Z,3.90
2022-08-14T06:37:13.673Z,3.28
2022-08-14T06:39:44.296Z,3.95
2022-08-14T06:42:32.287Z,4.10
2022-08-14T06:44:58.420Z,4.18
2022-08-14T06:47:25.145Z,4.20
2022-08-14T06:49:57.720Z,4.07
2022-08-14T06:52:25.058Z,3.67
2022-08-14T06:54:51.970Z,4.38
2022-08-14T06:57:19.272Z,3.80
2022-08-14T06:59:48.277Z,4.13
2022-08-14T07:02:35.877Z,3.53
2022-08-14T07:05:23.399Z,4.43
2022-08-14T07:07:51.267Z,3.63
2022-08-14T07:10:17.910Z,3.72
2022-08-14T07:12:56.686Z,3.85
2022-08-14T07:15:28.788Z,3.92
2022-08-14T07:17:55.879Z,3.85
2022-08-14T07:20:31.126Z,3.58
2022-08-14T07:23:07.470Z,3.67
2022-08-14T07:25:42.309Z,3.30
2022-08-14T07:28:12.825Z,3.67
2022-08-14T07:30:51.019Z,3.58
2022-08-14T07:33:20.781Z,3.35
2022-08-14T07:35:59.129Z,3.67
2022-08-14T07:38:31.988Z,3.95
2022-08-14T07:41:02.544Z,3.50
2022-08-14T07:43:29.807Z,3.53
2022-08-14T07:45:56.465Z,3.72
2022-08-14T07:48:25.398Z,2.88
2022-08-14T07:50:55.295Z,3.42
2022-08-14T07:53:26.073Z,3.50
2022-08-14T07:56:08.784Z,3.55
2022-08-14T07:58:38.966Z,3.10
2022-08-14T08:01:19.980Z,3.47
2022-08-14T08:03:49.594Z,3.65
2022-08-14T08:06:18.638Z,3.08
2022-08-14T08:09:00.978Z,2.83
2022-08-14T08:11:35.054Z,3.53
2022-08-14T08:14:10.706Z,3.15
2022-08-14T08:16:44.788Z,3.45
2022-08-14T08:19:14.341Z,3.30
2022-08-14T08:21:43.731Z,2.97
2022-08-14T08:24:14.975Z,3.47
2022-08-14T08:26:45.510Z,3.45
2022-08-14T08:29:22.534Z,3.33
2022-08-14T08:31:55.447Z,3.70
2022-08-14T08:34:23.766Z,2.67
2022-08-14T08:36:52.704Z,3.50
2022-08-14T08:39:22.847Z,3.33
2022-08-14T08:41:53.602Z,3.40
2022-08-14T08:44:33.004Z,3.13
2022-08-14T08:47:06.776Z,2.80
2022-08-14T08:49:48.831Z,2.92
2022-08-14T08:52:31.394Z,2.92
2022-08-14T08:54:59.375Z,3.05
2022-08-14T08:57:27.462Z,3.28
2022-08-14T08:59:55.127Z,3.33
2022-08-14T09:02:22.699Z,2.90
2022-08-14T09:05:03.871Z,2.83
2022-08-14T09:07:31.448Z,2.50
2022-08-14T09:09:59.874Z,2.75
2022-08-14T09:12:32.162Z,2.70
2022-08-14T09:15:01.002Z,2.70
2022-08-14T09:17:28.122Z,2.92
2022-08-14T09:19:55.343Z,2.72
2022-08-14T09:22:35.018Z,3.33
2022-08-14T09:25:10.724Z,2.90
2022-08-14T09:27:38.314Z,2.50
2022-08-14T09:30:30.661Z,2.80
2022-08-14T09:33:11.680Z,2.70
2022-08-14T09:35:45.745Z,2.20
2022-08-14T09:38:26.089Z,2.70
2022-08-14T09:41:18.581Z,3.40
2022-08-14T09:44:14.812Z,2.65
2022-08-14T09:46:58.063Z,2.00
2022-08-14T09:49:53.647Z,2.80
2022-08-14T09:52:33.217Z,2.83
2022-08-14T09:55:02.641Z,3.10
2022-08-14T09:57:31.458Z,2.35
2022-08-14T09:59:58.460Z,2.70
2022-08-14T10:02:31.496Z,2.75
2022-08-14T10:05:10.211Z,2.50
2022-08-14T10:07:53.507Z,2.50
2022-08-14T10:10:34.542Z,2.90
2022-08-14T10:13:23.665Z,2.40
2022-08-14T10:15:51.304Z,2.78
2022-08-14T10:18:21.413Z,3.08
2022-08-14T10:20:58.161Z,3.05
2022-08-14T10:23:33.996Z,3.38
2022-08-14T10:26:07.766Z,2.72
2022-08-14T10:29:18.117Z,3.03
2022-08-14T10:31:44.666Z,2.83
2022-08-14T10:34:19.045Z,2.95
2022-08-14T10:36:50.059Z,2.72
2022-08-14T10:39:28.737Z,3.17
2022-08-14T10:42:16.566Z,3.17
2022-08-14T10:44:57.076Z,3.42
2022-08-14T10:47:40.251Z,3.08
2022-08-14T10:50:36.366Z,3.17
2022-08-14T10:53:07.949Z,3.33
2022-08-14T10:55:45.771Z,2.63
2022-08-14T10:58:14.141Z,2.70
2022-08-14T11:00:56.893Z,3.05
2022-08-14T11:03:35.793Z,3.03
2022-08-14T11:06:16.348Z,2.72
2022-08-14T11:08:43.186Z,3.00
2022-08-14T11:11:12.760Z,2.92
2022-08-14T11:13:44.159Z,2.85
2022-08-14T11:16:11.293Z,3.08
2022-08-14T11:18:45.173Z,3.15
2022-08-14T11:21:23.113Z,3.30
2022-08-14T11:23:53.752Z,3.13
2022-08-14T11:26:28.099Z,2.90
2022-08-14T11:29:00.238Z,2.67
2022-08-14T11:31:35.564Z,3.15
2022-08-14T11:34:05.731Z,2.92
2022-08-14T11:37:09.392Z,3.00
2022-08-14T11:39:34.299Z,3.20
2022-08-14T11:42:57.577Z,2.72
2022-08-14T11:44:59.905Z,2.70
2022-08-14T11:47:35.468Z,3.15
2022-08-14T11:50:34.044Z,2.88
2022-08-14T11:53:07.689Z,3.35
2022-08-14T11:55:37.998Z,3.33
2022-08-14T11:58:11.749Z,3.55
2022-08-14T12:00:54.103Z,2.97
2022-08-14T12:03:37.218Z,3.08
2022-08-14T12:06:28.982Z,3.00
2022-08-14T12:09:00.984Z,3.20
2022-08-14T12:11:43.398Z,3.03
2022-08-14T12:14:13.390Z,2.65
2022-08-14T12:17:02.153Z,3.10
2022-08-14T12:19:29.377Z,3.45
2022-08-14T12:22:01.591Z,3.20
2022-08-14T12:24:36.902Z,2.75
2022-08-14T12:27:06.854Z,3.00
2022-08-14T12:29:33.710Z,3.22
2022-08-14T12:32:08.785Z,3.25
2022-08-14T12:34:37.160Z,3.33
2022-08-14T12:37:08.992Z,2.75
2022-08-14T12:39:40.233Z,2.85
2022-08-14T12:42:07.751Z,2.65
2022-08-14T12:44:39.488Z,2.83
2022-08-14T12:47:15.334Z,2.65
2022-08-14T12:49:53.013Z,2.90
2022-08-14T12:52:47.375Z,2.92
2022-08-14T12:55:32.276Z,3.60
2022-08-14T12:58:35.469Z,2.88
2022-08-14T13:01:16.709Z,2.78
2022-08-14T13:03:45.725Z,2.80
2022-08-14T13:06:14.742Z,2.67
2022-08-14T13:08:46.424Z,2.55
2022-08-14T13:11:20.343Z,2.67
2022-08-14T13:13:55.491Z,2.83
2022-08-14T13:16:38.044Z,2.72
2022-08-14T13:19:11.087Z,2.58
2022-08-14T13:22:04.964Z,2.63
2022-08-14T13:24:29.794Z,2.92
2022-08-14T13:27:04.365Z,3.08
2022-08-14T13:29:37.708Z,3.17
2022-08-14T13:32:09.523Z,2.55
2022-08-14T13:34:38.183Z,2.70
2022-08-14T13:37:07.299Z,3.95
2022-08-14T13:39:36.194Z,3.65
2022-08-14T13:42:13.444Z,3.10
2022-08-14T13:44:45.386Z,2.97
2022-08-14T13:47:16.082Z,3.03
2022-08-14T13:49:57.770Z,3.22
2022-08-14T13:52:52.026Z,2.80
2022-08-14T13:55:18.000Z,2.92
2022-08-14T13:57:49.812Z,2.78
2022-08-14T14:00:32.625Z,3.05
2022-08-14T14:03:05.439Z,2.53
2022-08-14T14:05:53.666Z,2.88
2022-08-14T14:08:46.969Z,2.60
2022-08-14T14:11:14.225Z,2.40
2022-08-14T14:13:45.110Z,2.95
2022-08-14T14:16:14.886Z,2.83
2022-08-14T14:18:43.920Z,2.92
2022-08-14T14:21:13.436Z,3.00
2022-08-14T14:23:45.563Z,3.22
2022-08-14T14:26:23.276Z,3.65
2022-08-14T14:28:56.565Z,3.03
2022-08-14T14:31:30.422Z,3.20
2022-08-14T14:34:07.773Z,2.95
2022-08-14T14:36:43.890Z,2.63
2022-08-14T14:39:10.818Z,3.45
2022-08-14T14:41:44.080Z,3.10
2022-08-14T14:44:13.360Z,2.80
2022-08-14T14:46:43.963Z,3.72
2022-08-14T14:49:14.705Z,3.30
2022-08-14T14:51:46.625Z,3.95
2022-08-14T14:54:19.676Z,3.15
2022-08-14T14:56:59.989Z,3.20
2022-08-14T14:59:27.439Z,3.20
2022-08-14T15:02:02.745Z,2.75
2022-08-14T15:04:37.481Z,2.90
2022-08-14T15:07:06.634Z,3.30
2022-08-14T15:09:37.120Z,3.25
2022-08-14T15:12:34.711Z,3.25
2022-08-14T15:14:54.729Z,2.70
2022-08-14T15:17:24.486Z,2.75
2022-08-14T15:19:56.888Z,3.08
2022-08-14T15:22:25.314Z,2.78
2022-08-14T15:24:52.222Z,3.35
2022-08-14T15:27:26.367Z,3.42
2022-08-14T15:29:53.485Z,3.17
2022-08-14T15:32:23.113Z,2.80
2022-08-14T15:34:51.670Z,2.75
2022-08-14T15:37:22.906Z,3.22
2022-08-14T15:39:52.455Z,3.15
2022-08-14T15:42:20.624Z,2.67
2022-08-14T15:44:57.969Z,2.75
2022-08-14T15:47:30.038Z,2.60
2022-08-14T15:50:03.079Z,2.45
2022-08-14T15:52:37.155Z,4.22
2022-08-14T15:55:07.624Z,2.47
2022-08-14T15:57:35.068Z,3.20
2022-08-14T16:00:37.839Z,2.70
2022-08-14T16:03:11.672Z,2.80
2022-08-14T16:05:38.964Z,2.97
2022-08-14T16:08:27.366Z,2.60
2022-08-14T16:10:55.376Z,2.83
2022-08-14T16:13:39.312Z,2.85
2022-08-14T16:16:46.931Z,2.65
2022-08-14T16:19:07.445Z,3.08
2022-08-14T16:21:39.449Z,2.90
2022-08-14T16:24:06.795Z,2.95
2022-08-14T16:26:34.055Z,2.90
2022-08-14T16:29:07.471Z,2.97
2022-08-14T16:31:36.774Z,2.75
2022-08-14T16:34:43.930Z,3.00
2022-08-14T16:36:54.170Z,2.45
2022-08-14T16:39:22.812Z,2.90
2022-08-14T16:41:53.696Z,2.70
2022-08-14T16:44:32.013Z,2.63
2022-08-14T16:47:04.057Z,3.08
2022-08-14T16:50:02.630Z,2.67
2022-08-14T16:52:26.296Z,2.53
2022-08-14T16:55:08.358Z,3.00
2022-08-14T16:57:47.630Z,2.90
2022-08-14T17:00:28.755Z,3.03
2022-08-14T17:03:11.467Z,2.72
2022-08-14T17:05:43.976Z,2.83
2022-08-14T17:08:33.330Z,3.10
2022-08-14T17:11:11.149Z,2.58
2022-08-14T17:13:58.595Z,3.20
2022-08-14T17:16:37.299Z,2.95
2022-08-14T17:19:11.571Z,2.75
2022-08-14T17:21:42.096Z,2.88
2022-08-14T17:24:56.789Z,3.70
2022-08-14T17:27:03.940Z,2.55
2022-08-14T17:29:33.355Z,3.85
2022-08-14T17:32:28.232Z,3.50
2022-08-14T17:34:55.394Z,3.47
2022-08-14T17:37:44.736Z,2.78
2022-08-14T17:40:16.006Z,3.25
2022-08-14T17:42:51.778Z,2.40
2022-08-14T17:45:39.112Z,3.03
2022-08-14T17:49:15.446Z,3.20
2022-08-14T17:51:12.414Z,2.55
2022-08-14T17:53:53.668Z,2.72
2022-08-14T17:56:31.508Z,2.58
2022-08-14T17:59:06.975Z,2.88
2022-08-14T18:01:38.685Z,2.97
2022-08-14T18:04:24.546Z,2.28
2022-08-14T18:06:57.714Z,2.97
2022-08-14T18:09:57.528Z,2.80
2022-08-14T18:12:32.898Z,2.13
2022-08-14T18:15:16.698Z,2.75
2022-08-14T18:17:52.845Z,2.97
2022-08-14T18:21:23.643Z,3.30
2022-08-14T18:23:10.677Z,2.22
2022-08-14T18:25:51.840Z,2.70
2022-08-14T18:28:51.354Z,2.88
2022-08-14T18:31:22.722Z,2.40
2022-08-14T18:33:56.326Z,2.28
2022-08-14T18:36:57.665Z,2.47
2022-08-14T18:39:32.700Z,2.25
2022-08-14T18:42:23.410Z,2.28
2022-08-14T18:44:50.657Z,2.65
2022-08-14T18:47:19.821Z,2.95
2022-08-14T18:49:57.651Z,3.13
2022-08-14T18:52:32.060Z,2.92
2022-08-14T18:55:20.803Z,2.67
2022-08-14T18:58:27.701Z,2.40
2022-08-14T19:00:56.141Z,2.83
2022-08-14T19:03:36.566Z,2.63
2022-08-14T19:06:09.033Z,2.97
2022-08-14T19:08:43.802Z,2.65
2022-08-14T19:11:40.706Z,3.38
2022-08-14T19:14:12.827Z,3.05
2022-08-14T19:16:53.531Z,2.42
2022-08-14T19:19:20.510Z,2.85
2022-08-14T19:21:57.186Z,3.03
2022-08-14T19:24:44.218Z,2.63
2022-08-14T19:27:23.665Z,2.78
2022-08-14T19:30:19.977Z,2.70
2022-08-14T19:32:57.098Z,2.67
2022-08-14T19:35:49.187Z,2.80
2022-08-14T19:38:47.846Z,2.75
2022-08-14T19:41:16.215Z,2.70
2022-08-14T19:43:56.453Z,3.72
2022-08-14T19:46:38.496Z,3.08
2022-08-14T19:49:14.674Z,2.90
2022-08-14T19:51:50.232Z,2.00
2022-08-14T19:54:17.292Z,4.10
2022-08-14T19:56:46.068Z,2.88
2022-08-14T19:59:19.307Z,2.33
2022-08-14T20:01:51.008Z,2.47
2022-08-14T20:04:46.195Z,3.08
2022-08-14T20:07:59.420Z,3.78
2022-08-14T20:11:03.590Z,2.65
2022-08-14T20:13:32.304Z,3.25
2022-08-14T20:16:06.735Z,2.72
2022-08-14T20:18:49.642Z,2.75
2022-08-14T20:21:18.551Z,3.53
2022-08-14T20:23:47.802Z,3.88
2022-08-14T20:26:31.735Z,3.13
2022-08-14T20:29:05.073Z,3.13
2022-08-14T20:31:37.519Z,2.40
2022-08-14T20:34:19.203Z,3.05
2022-08-14T20:37:01.873Z,3.28
2022-08-14T20:39:34.417Z,4.18
2022-08-14T20:42:31.198Z,2.97
2022-08-14T20:45:19.698Z,3.83
2022-08-14T20:47:55.938Z,3.03
2022-08-14T20:50:29.111Z,2.83
2022-08-14T20:53:06.645Z,3.08
2022-08-14T20:55:48.173Z,3.58
2022-08-14T20:58:42.042Z,3.20
2022-08-14T21:01:22.638Z,2.88
2022-08-14T21:04:12.052Z,2.70
2022-08-14T21:07:23.291Z,3.38
2022-08-14T21:10:04.483Z,3.75
2022-08-14T21:12:33.454Z,3.03
2022-08-14T21:15:02.498Z,3.33
2022-08-14T21:17:30.686Z,3.53
2022-08-14T21:19:59.778Z,2.78
2022-08-14T21:22:47.927Z,3.08
2022-08-14T21:25:15.363Z,3.03
2022-08-14T21:27:56.618Z,3.15
2022-08-14T21:30:46.828Z,2.90
2022-08-14T21:33:12.355Z,2.78
2022-08-14T21:35:46.787Z,3.08
2022-08-14T21:38:18.011Z,3.50
2022-08-14T21:40:50.366Z,2.63
2022-08-14T21:43:23.179Z,3.20
2022-08-14T21:45:58.787Z,2.28
2022-08-14T21:48:29.823Z,2.35
2022-08-14T21:51:54.391Z,2.70
2022-08-14T21:53:59.337Z,3.47
2022-08-14T21:56:37.139Z,2.80
2022-08-14T21:59:09.131Z,3.38
2022-08-14T22:02:00.676Z,3.08
2022-08-14T22:04:34.497Z,2.95
2022-08-14T22:07:10.683Z,3.58
2022-08-14T22:09:42.774Z,3.22
2022-08-14T22:12:57.202Z,2.80
2022-08-14T22:15:06.292Z,3.75
2022-08-14T22:17:34.362Z,3.50
2022-08-14T22:20:05.137Z,3.08
2022-08-14T22:22:32.249Z,3.08
2022-08-14T22:25:00.325Z,3.25
2022-08-14T22:27:32.169Z,2.85
2022-08-14T22:29:59.679Z,3.00
2022-08-14T22:32:56.150Z,3.25
2022-08-14T22:35:16.778Z,3.10
2022-08-14T22:37:44.513Z,3.63
2022-08-14T22:40:58.113Z,3.00
2022-08-14T22:43:08.289Z,2.60
2022-08-14T22:45:37.759Z,3.75
2022-08-14T22:48:10.775Z,3.70
2022-08-14T22:50:53.153Z,3.45
2022-08-14T22:53:21.791Z,3.22
2022-08-14T22:55:51.920Z,2.88
2022-08-14T22:58:19.569Z,2.70
2022-08-14T23:01:01.341Z,3.15
2022-08-14T23:03:34.818Z,3.55
2022-08-14T23:06:04.428Z,4.00
2022-08-14T23:08:59.123Z,3.03
2022-08-14T23:11:28.768Z,2.83
2022-08-14T23:13:55.481Z,3.28
2022-08-14T23:16:27.520Z,3.15
2022-08-14T23:18:54.528Z,3.47
2022-08-14T23:21:24.118Z,3.85
2022-08-14T23:23:54.973Z,3.20
2022-08-14T23:26:48.484Z,3.35
2022-08-14T23:29:11.514Z,3.33
2022-08-14T23:31:38.601Z,3.78
2022-08-14T23:34:08.255Z,3.22
2022-08-14T23:36:53.522Z,3.22
2022-08-14T23:39:32.709Z,3.00
2022-08-14T23:42:09.539Z,2.95
2022-08-14T23:44:39.015Z,2.70
2022-08-14T23:47:12.251Z,2.97
2022-08-14T23:50:00.411Z,3.78
2022-08-14T23:52:50.426Z,3.33
2022-08-14T23:55:23.780Z,3.70
2022-08-14T23:57:58.578Z,2.88
